Time;durP1;ratioP1;P1;durP2;ratioP2;P2;SDS_P1;SDS_P2;PMS_P1;PMS_P2;Temp;Humidity;BMP_temperature;BMP_pressure;BME280_temperature;BME280_humidity;BME280_pressure;Samples;Min_cycle;Max_cycle;Signal;HPM_P1;HPM_P2
2022/05/14 00:01:29;;;;;;;8.70;4.38;;;12.00;99.90;;;;;;4981528;28;20042;-76
2022/05/14 00:03:56;;;;;;;4.15;3.75;;;11.90;99.90;;;;;;4981598;28;20038;-77
2022/05/14 00:06:23;;;;;;;6.95;4.53;;;11.80;99.90;;;;;;4979179;28;20034;-76
2022/05/14 00:08:50;;;;;;;5.07;4.43;;;11.80;99.90;;;;;;4982204;28;20527;-76
2022/05/14 00:14:03;;;;;;;4.22;3.38;;;11.90;99.90;;;;;;4984649;28;20093;-76
2022/05/14 00:16:31;;;;;;;5.53;4.00;;;11.90;99.90;;;;;;4980635;28;20141;-76
2022/05/14 00:18:58;;;;;;;4.70;4.18;;;11.70;99.90;;;;;;4981910;28;20176;-76
2022/05/14 00:21:23;;;;;;;7.85;4.55;;;11.70;99.90;;;;;;4981317;28;20062;-76
2022/05/14 00:23:50;;;;;;;4.97;4.10;;;11.80;99.90;;;;;;4965150;28;20121;-76
2022/05/14 00:26:16;;;;;;;4.25;3.85;;;11.70;99.90;;;;;;4962711;28;20728;-76
2022/05/14 00:28:42;;;;;;;3.72;3.30;;;11.70;99.90;;;;;;4981523;28;20624;-76
2022/05/14 00:31:09;;;;;;;4.32;3.53;;;11.80;99.90;;;;;;4963516;28;20058;-75
2022/05/14 00:33:35;;;;;;;4.60;3.80;;;11.80;99.90;;;;;;4982077;28;20038;-75
2022/05/14 00:36:01;;;;;;;4.05;3.75;;;11.90;99.90;;;;;;4981280;28;20030;-75
2022/05/14 00:38:26;;;;;;;3.72;3.35;;;11.80;99.90;;;;;;4962237;28;20047;-76
2022/05/14 00:41:00;;;;;;;4.28;3.88;;;11.80;99.90;;;;;;4979314;28;20042;-76
2022/05/14 00:43:26;;;;;;;8.38;4.70;;;11.70;99.90;;;;;;4979379;28;20026;-75
2022/05/14 00:46:04;;;;;;;4.85;3.97;;;11.50;99.90;;;;;;4977800;28;20121;-76
2022/05/14 00:48:36;;;;;;;6.65;4.03;;;11.30;99.90;;;;;;4980014;28;20031;-75
2022/05/14 00:51:02;;;;;;;7.15;4.40;;;11.40;99.90;;;;;;4979127;28;20232;-74
2022/05/14 00:53:35;;;;;;;5.18;3.88;;;11.40;99.90;;;;;;4978441;28;20233;-76
2022/05/14 00:56:05;;;;;;;4.78;4.05;;;11.30;99.90;;;;;;4980704;28;20682;-76
2022/05/14 00:58:48;;;;;;;4.40;3.97;;;11.20;99.90;;;;;;4961547;28;20042;-76
2022/05/14 01:01:14;;;;;;;6.47;4.22;;;11.20;99.90;;;;;;4979642;28;20038;-76
2022/05/14 01:03:40;;;;;;;4.72;4.22;;;11.30;99.90;;;;;;4985455;28;20057;-76
2022/05/14 01:06:09;;;;;;;3.70;3.03;;;11.40;99.90;;;;;;4987711;28;20100;-75
2022/05/14 01:08:35;;;;;;;4.72;2.95;;;11.30;99.90;;;;;;4981393;28;20037;-76
2022/05/14 01:11:01;;;;;;;3.60;3.30;;;11.30;99.90;;;;;;4982102;28;20046;-75
2022/05/14 01:13:28;;;;;;;3.90;3.10;;;11.40;99.90;;;;;;4987333;28;20042;-76
2022/05/14 01:15:59;;;;;;;7.20;3.30;;;11.40;99.90;;;;;;4989458;28;20035;-76
2022/05/14 01:18:29;;;;;;;4.95;3.60;;;11.30;99.90;;;;;;4982315;28;20490;-76
2022/05/14 01:21:05;;;;;;;4.43;3.95;;;11.20;99.90;;;;;;4979557;28;20022;-76
2022/05/14 01:26:55;;;;;;;4.15;3.72;;;11.00;99.90;;;;;;4984829;28;20037;-76
2022/05/14 01:29:23;;;;;;;7.00;4.20;;;10.80;99.90;;;;;;4984660;28;21275;-76
2022/05/14 01:31:51;;;;;;;5.30;4.07;;;10.80;99.90;;;;;;4986399;28;20555;-76
2022/05/14 01:34:30;;;;;;;4.68;4.00;;;10.90;99.90;;;;;;4983150;28;20044;-76
2022/05/14 01:36:56;;;;;;;6.53;3.95;;;11.10;99.90;;;;;;4984892;28;20076;-76
2022/05/14 01:39:23;;;;;;;6.25;3.60;;;11.00;99.90;;;;;;4980926;28;20038;-76
2022/05/14 01:41:49;;;;;;;14.40;3.00;;;11.00;99.90;;;;;;4984750;28;20057;-76
2022/05/14 01:44:15;;;;;;;3.08;2.80;;;10.90;99.90;;;;;;4981174;28;20046;-76
2022/05/14 01:46:41;;;;;;;2.80;2.60;;;10.90;99.90;;;;;;4967201;28;20042;-77
2022/05/14 01:49:07;;;;;;;3.10;2.80;;;10.90;99.90;;;;;;4969929;28;20053;-77
2022/05/14 01:51:33;;;;;;;3.80;3.50;;;10.90;99.90;;;;;;4982551;28;20548;-77
2022/05/14 01:53:58;;;;;;;5.43;3.55;;;10.80;99.90;;;;;;4980209;28;20042;-76
2022/05/14 01:56:24;;;;;;;4.10;3.75;;;10.80;99.90;;;;;;4981843;28;20035;-77
2022/05/14 01:58:50;;;;;;;4.68;3.92;;;10.90;99.90;;;;;;4981821;28;20552;-77
2022/05/14 02:01:20;;;;;;;6.25;3.63;;;10.90;99.90;;;;;;4980168;28;20046;-77
2022/05/14 02:03:53;;;;;;;6.55;3.97;;;11.00;99.90;;;;;;4981045;28;20422;-76
2022/05/14 02:06:21;;;;;;;4.88;3.70;;;11.00;99.90;;;;;;4985384;28;20052;-77
2022/05/14 02:08:46;;;;;;;5.72;3.80;;;11.00;99.90;;;;;;4963727;28;20038;-76
2022/05/14 02:11:16;;;;;;;6.43;4.00;;;11.00;99.90;;;;;;4991344;28;20097;-77
2022/05/14 02:13:44;;;;;;;4.68;4.00;;;11.10;99.90;;;;;;4979279;28;20039;-76
2022/05/14 02:16:09;;;;;;;4.15;3.75;;;11.00;99.90;;;;;;4986809;28;20169;-76
2022/05/14 02:18:36;;;;;;;5.78;4.13;;;11.00;99.90;;;;;;4982004;28;20461;-77
2022/05/14 02:21:03;;;;;;;6.53;3.92;;;10.90;99.90;;;;;;4985827;28;20080;-77
2022/05/14 02:23:29;;;;;;;6.28;3.50;;;10.90;99.90;;;;;;4985190;28;20083;-76
2022/05/14 02:25:55;;;;;;;4.28;3.88;;;10.90;99.90;;;;;;4984340;28;20482;-76
2022/05/14 02:28:21;;;;;;;3.85;3.55;;;10.70;99.90;;;;;;4981924;28;20035;-77
2022/05/14 02:30:47;;;;;;;3.97;3.58;;;10.50;99.90;;;;;;4970190;28;20115;-77
2022/05/14 02:33:13;;;;;;;3.60;3.30;;;10.40;99.90;;;;;;4982367;28;20074;-76
2022/05/14 02:35:39;;;;;;;3.72;3.40;;;10.20;99.90;;;;;;4979962;28;20058;-76
2022/05/14 02:38:05;;;;;;;5.75;3.00;;;10.10;99.90;;;;;;4984102;28;20050;-76
2022/05/14 02:40:31;;;;;;;3.35;3.15;;;10.00;99.90;;;;;;4978727;28;20052;-76
2022/05/14 02:42:57;;;;;;;3.70;3.40;;;9.90;99.90;;;;;;4983868;28;20046;-76
2022/05/14 02:45:23;;;;;;;4.05;3.17;;;9.80;99.90;;;;;;4984200;28;20026;-76
2022/05/14 02:47:49;;;;;;;3.30;2.80;;;9.90;99.90;;;;;;4978928;28;20117;-76
2022/05/14 02:50:15;;;;;;;3.72;3.42;;;10.10;99.90;;;;;;4978474;28;20034;-76
2022/05/14 02:52:41;;;;;;;3.85;3.45;;;10.20;99.90;;;;;;4982707;28;20533;-76
2022/05/14 02:55:08;;;;;;;4.45;3.80;;;10.30;99.90;;;;;;4980674;28;20129;-75
2022/05/14 02:57:34;;;;;;;3.80;3.50;;;10.40;99.90;;;;;;4981242;28;20061;-76
2022/05/14 03:00:00;;;;;;;4.55;3.42;;;10.40;99.90;;;;;;4981444;28;20370;-75
2022/05/14 03:02:26;;;;;;;4.20;3.70;;;10.50;99.90;;;;;;4980402;28;20141;-76
2022/05/14 03:04:52;;;;;;;3.97;3.47;;;10.50;99.90;;;;;;4967494;28;20034;-75
2022/05/14 03:07:18;;;;;;;3.95;3.20;;;10.50;99.90;;;;;;4964055;28;20034;-75
2022/05/14 03:09:43;;;;;;;4.30;3.70;;;10.40;99.90;;;;;;4977089;28;20089;-76
2022/05/14 03:12:13;;;;;;;3.90;3.35;;;10.50;99.90;;;;;;4979620;28;20045;-76
2022/05/14 03:14:38;;;;;;;3.95;3.65;;;10.50;99.90;;;;;;4981063;28;20129;-76
2022/05/14 03:17:05;;;;;;;6.60;3.47;;;10.60;99.90;;;;;;4979278;28;20125;-76
2022/05/14 03:19:31;;;;;;;4.10;3.70;;;10.60;99.90;;;;;;4963981;28;20562;-76
2022/05/14 03:21:57;;;;;;;3.65;3.35;;;10.60;99.90;;;;;;4987340;28;20034;-76
2022/05/14 03:24:23;;;;;;;4.38;3.03;;;10.60;99.90;;;;;;4982542;28;20045;-77
2022/05/14 03:26:49;;;;;;;3.53;3.20;;;10.70;99.90;;;;;;4977323;28;20501;-77
2022/05/14 03:29:15;;;;;;;13.85;3.40;;;10.60;99.90;;;;;;4987818;28;20031;-76
2022/05/14 03:31:42;;;;;;;2.85;2.65;;;10.30;99.90;;;;;;4965121;28;20105;-76
2022/05/14 03:34:10;;;;;;;12.88;3.03;;;10.10;99.90;;;;;;4983128;28;20062;-76
2022/05/14 03:36:41;;;;;;;2.72;2.53;;;9.90;99.90;;;;;;4984902;28;20054;-77
2022/05/14 03:39:07;;;;;;;2.45;2.30;;;10.00;99.90;;;;;;4979904;28;20067;-76
2022/05/14 03:41:34;;;;;;;2.75;2.50;;;10.10;99.90;;;;;;4977486;28;20073;-77
2022/05/14 03:43:59;;;;;;;3.20;2.70;;;10.20;99.90;;;;;;4982917;28;20082;-76
2022/05/14 03:46:25;;;;;;;3.85;3.00;;;10.20;99.90;;;;;;4965455;28;20046;-76
2022/05/14 03:48:51;;;;;;;3.42;3.13;;;10.20;99.90;;;;;;4981067;28;20042;-76
2022/05/14 03:51:19;;;;;;;4.00;3.40;;;10.20;99.90;;;;;;4981351;28;20026;-76
2022/05/14 03:53:45;;;;;;;;;;;10.10;99.90;;;;;;4986732;28;20035;-76
2022/05/14 03:56:11;;;;;;;3.95;3.55;;;10.00;99.90;;;;;;4989884;28;19916;-76
2022/05/14 03:58:37;;;;;;;4.72;3.78;;;9.80;99.90;;;;;;4986972;28;20034;-76
2022/05/14 04:01:04;;;;;;;4.57;3.20;;;9.80;99.90;;;;;;4985381;28;20501;-77
2022/05/14 04:03:31;;;;;;;3.25;3.00;;;9.90;99.90;;;;;;4982105;28;20133;-76
2022/05/14 04:05:56;;;;;;;3.80;3.50;;;9.90;99.90;;;;;;4985436;28;20066;-76
2022/05/14 04:08:22;;;;;;;12.27;3.00;;;9.90;99.90;;;;;;4983919;28;20419;-75
2022/05/14 04:10:48;;;;;;;2.75;2.55;;;9.80;99.90;;;;;;4980401;28;20120;-76
2022/05/14 04:13:13;;;;;;;3.03;2.80;;;9.80;99.90;;;;;;4984093;28;20031;-76
2022/05/14 04:15:39;;;;;;;3.17;2.88;;;9.70;99.90;;;;;;4990352;28;20418;-76
2022/05/14 04:18:05;;;;;;;4.97;2.70;;;9.40;99.90;;;;;;4981348;28;20351;-77
2022/05/14 04:20:31;;;;;;;3.88;3.13;;;9.30;99.90;;;;;;4987870;28;20049;-76
2022/05/14 04:22:57;;;;;;;3.75;2.67;;;9.30;99.90;;;;;;4987450;28;20779;-76
2022/05/14 04:25:24;;;;;;;3.35;2.95;;;9.40;99.90;;;;;;4988554;28;20371;-76
2022/05/14 04:27:50;;;;;;;3.72;3.00;;;9.50;99.90;;;;;;4980876;28;20038;-76
2022/05/14 04:30:16;;;;;;;3.35;3.15;;;9.50;99.90;;;;;;4984689;28;20042;-76
2022/05/14 04:32:43;;;;;;;3.63;3.33;;;9.30;99.90;;;;;;4986048;28;20069;-77
2022/05/14 04:35:10;;;;;;;3.85;3.45;;;9.20;99.90;;;;;;4980761;28;20035;-76
2022/05/14 04:37:36;;;;;;;3.33;3.13;;;9.30;99.90;;;;;;4981391;28;20475;-77
2022/05/14 04:40:03;;;;;;;3.70;3.30;;;9.50;99.90;;;;;;4988694;28;20037;-76
2022/05/14 04:42:29;;;;;;;5.60;3.72;;;9.70;99.90;;;;;;4986580;28;20176;-76
2022/05/14 04:44:55;;;;;;;3.92;3.55;;;9.80;99.90;;;;;;4984301;28;20034;-76
2022/05/14 04:47:21;;;;;;;4.93;3.85;;;9.80;99.90;;;;;;4972711;28;20030;-77
2022/05/14 04:49:48;;;;;;;4.30;3.85;;;10.00;99.90;;;;;;4986592;28;20038;-76
2022/05/14 04:52:14;;;;;;;4.03;3.63;;;10.20;99.90;;;;;;4991637;28;20042;-76
2022/05/14 04:54:40;;;;;;;3.70;3.35;;;10.30;99.90;;;;;;4988746;28;20421;-77
2022/05/14 04:57:07;;;;;;;4.18;3.75;;;10.40;99.90;;;;;;4992042;28;20065;-76
2022/05/14 04:59:33;;;;;;;3.95;3.58;;;10.40;99.90;;;;;;4988503;28;20065;-76
2022/05/14 05:04:44;;;;;;;4.55;3.65;;;10.50;99.90;;;;;;4989411;28;20076;-76
2022/05/14 05:07:11;;;;;;;5.28;4.07;;;10.50;99.90;;;;;;4986268;28;20203;-77
2022/05/14 05:09:37;;;;;;;5.65;3.95;;;10.60;99.90;;;;;;4985586;28;20031;-76
2022/05/14 05:12:03;;;;;;;5.25;4.10;;;10.60;99.90;;;;;;4973314;28;20030;-76
2022/05/14 05:14:29;;;;;;;4.47;4.07;;;10.80;99.90;;;;;;4984848;28;20026;-76
2022/05/14 05:16:54;;;;;;;4.90;4.35;;;10.90;99.90;;;;;;4991482;28;20045;-76
2022/05/14 05:19:20;;;;;;;4.43;3.90;;;10.90;99.90;;;;;;4970181;28;20117;-76
2022/05/14 05:21:46;;;;;;;4.88;4.03;;;10.90;99.90;;;;;;4983375;28;20077;-76
2022/05/14 05:24:13;;;;;;;4.65;4.18;;;10.90;99.90;;;;;;4989043;28;20026;-77
2022/05/14 05:26:38;;;;;;;5.60;4.53;;;11.00;99.90;;;;;;4984620;28;20146;-76
2022/05/14 05:29:05;;;;;;;6.10;4.75;;;11.00;99.90;;;;;;4983619;28;20117;-77
2022/05/14 05:31:32;;;;;;;8.50;4.88;;;11.20;99.90;;;;;;4984716;28;20038;-77
2022/05/14 05:33:58;;;;;;;4.97;4.47;;;11.30;99.90;;;;;;4985974;28;20034;-77
2022/05/14 05:36:24;;;;;;;8.48;5.68;;;11.30;99.90;;;;;;4978501;28;20117;-77
2022/05/14 05:38:53;;;;;;;5.80;4.78;;;11.40;99.90;;;;;;4980033;28;20035;-77
2022/05/14 05:41:19;;;;;;;;;;;11.50;99.90;;;;;;4989951;28;21918;-77
2022/05/14 05:43:45;;;;;;;6.28;4.47;;;11.50;99.90;;;;;;4984833;28;20456;-77
2022/05/14 05:46:11;;;;;;;5.50;4.78;;;11.70;99.90;;;;;;4983178;28;20857;-77
2022/05/14 05:48:37;;;;;;;7.63;5.10;;;11.80;99.90;;;;;;4980698;28;20125;-77
2022/05/14 05:51:06;;;;;;;6.85;4.95;;;12.00;99.90;;;;;;4979989;28;20057;-77
2022/05/14 05:59:03;;;;;;;7.32;5.40;;;12.40;99.90;;;;;;4981593;28;20674;-77
2022/05/14 06:01:29;;;;;;;7.22;4.93;;;12.60;99.90;;;;;;4981965;28;20821;-77
2022/05/14 06:03:54;;;;;;;5.82;4.90;;;12.80;99.90;;;;;;4984092;28;20045;-77
2022/05/14 06:06:20;;;;;;;5.53;4.75;;;12.90;99.90;;;;;;4980849;28;20057;-77
2022/05/14 06:08:50;;;;;;;7.20;5.60;;;13.10;99.90;;;;;;4985132;28;20529;-76
2022/05/14 06:11:17;;;;;;;5.78;4.93;;;13.30;99.90;;;;;;4981186;28;20030;-76
2022/05/14 06:13:43;;;;;;;6.97;5.55;;;13.30;99.90;;;;;;4984654;28;20026;-76
2022/05/14 06:16:13;;;;;;;6.70;5.03;;;13.50;99.90;;;;;;4989928;28;20038;-76
2022/05/14 06:18:42;;;;;;;5.60;5.00;;;13.50;99.90;;;;;;4980788;28;20094;-76
2022/05/14 06:21:08;;;;;;;9.98;5.53;;;13.50;99.90;;;;;;4982917;28;20030;-77
2022/05/14 06:23:34;;;;;;;7.32;5.03;;;13.80;99.90;;;;;;4989103;28;20091;-77
2022/05/14 06:26:00;;;;;;;5.90;4.63;;;13.90;99.90;;;;;;4985362;28;20109;-77
2022/05/14 06:28:26;;;;;;;5.95;5.32;;;14.00;99.90;;;;;;4989306;28;20097;-76
2022/05/14 06:30:51;;;;;;;7.25;5.15;;;14.20;99.90;;;;;;4983985;28;20042;-76
2022/05/14 06:33:19;;;;;;;6.50;4.82;;;14.40;99.90;;;;;;4994370;28;20038;-77
2022/05/14 06:35:45;;;;;;;7.03;5.25;;;14.60;99.90;;;;;;4986293;28;20398;-76
2022/05/14 06:38:12;;;;;;;8.65;5.20;;;14.70;99.90;;;;;;4988145;28;20041;-75
2022/05/14 06:40:39;;;;;;;8.38;5.25;;;14.50;99.90;;;;;;4986906;28;20077;-76
2022/05/14 06:43:05;;;;;;;9.43;5.43;;;14.50;99.90;;;;;;4991997;28;20474;-76
2022/05/14 06:45:31;;;;;;;7.28;5.40;;;14.70;99.90;;;;;;4990618;28;20030;-77
2022/05/14 06:47:57;;;;;;;6.18;5.43;;;14.90;99.90;;;;;;4993282;28;20092;-76
2022/05/14 06:50:24;;;;;;;6.10;5.40;;;15.10;99.90;;;;;;4952474;28;20045;-76
2022/05/14 06:52:54;;;;;;;5.60;5.10;;;15.20;99.90;;;;;;4979530;28;20154;-76
2022/05/14 06:55:24;;;;;;;5.60;4.90;;;15.40;99.90;;;;;;4983189;28;20034;-76
2022/05/14 06:57:51;;;;;;;5.38;4.78;;;15.50;99.90;;;;;;4981889;28;20042;-75
2022/05/14 07:00:18;;;;;;;6.78;5.05;;;15.50;99.90;;;;;;4988243;28;20359;-75
2022/05/14 07:02:45;;;;;;;7.10;4.95;;;15.80;99.90;;;;;;4981983;28;20135;-75
2022/05/14 07:07:55;;;;;;;7.13;4.47;;;16.20;99.90;;;;;;4970754;28;20029;-75
2022/05/14 07:10:21;;;;;;;5.25;4.60;;;16.30;99.90;;;;;;4987026;28;21224;-76
2022/05/14 07:12:47;;;;;;;5.85;4.75;;;16.20;99.90;;;;;;4968127;28;20041;-76
2022/05/14 07:15:13;;;;;;;11.52;5.05;;;16.30;99.90;;;;;;4987798;28;20038;-76
2022/05/14 07:17:39;;;;;;;6.65;5.20;;;16.50;99.90;;;;;;4981173;28;20053;-76
2022/05/14 07:20:05;;;;;;;5.25;4.35;;;16.60;99.90;;;;;;4978486;28;20039;-76
2022/05/14 07:22:31;;;;;;;5.15;4.50;;;16.80;99.90;;;;;;4981436;28;20037;-76
2022/05/14 07:24:57;;;;;;;5.03;4.53;;;17.10;99.90;;;;;;4982408;28;20030;-76
2022/05/14 07:27:23;;;;;;;6.25;4.50;;;17.40;99.90;;;;;;4964140;28;20393;-76
2022/05/14 07:29:48;;;;;;;5.18;4.68;;;17.60;99.90;;;;;;4989228;28;20022;-76
2022/05/14 07:32:16;;;;;;;5.72;4.53;;;17.80;99.90;;;;;;4987542;28;20038;-76
2022/05/14 07:34:43;;;;;;;6.05;4.30;;;17.90;99.90;;;;;;4987032;28;20037;-75
2022/05/14 07:37:20;;;;;;;8.05;5.10;;;17.90;99.90;;;;;;4977324;28;20045;-76
2022/05/14 07:39:51;;;;;;;5.30;4.47;;;17.90;99.90;;;;;;4988995;28;20115;-76
2022/05/14 07:42:53;;;;;;;5.10;4.18;;;18.10;99.90;;;;;;4978782;28;20678;-76
2022/05/14 07:45:25;;;;;;;7.00;3.85;;;18.40;99.90;;;;;;4957414;28;20084;-75
2022/05/14 07:47:53;;;;;;;3.97;3.58;;;18.70;99.90;;;;;;4985017;28;20035;-75
2022/05/14 07:50:18;;;;;;;;;;;18.50;96.20;;;;;;4984313;28;20487;-74
2022/05/14 07:52:45;;;;;;;3.28;2.97;;;18.50;98.90;;;;;;4987038;28;19914;-76
2022/05/14 07:55:11;;;;;;;4.80;2.88;;;18.90;99.30;;;;;;4966114;28;20041;-76
2022/05/14 07:57:37;;;;;;;3.72;1.77;;;19.30;94.20;;;;;;4984694;28;20042;-76
2022/05/14 08:00:04;;;;;;;5.13;2.20;;;19.60;82.90;;;;;;4971922;28;20027;-76
2022/05/14 08:02:34;;;;;;;3.20;2.28;;;19.70;87.30;;;;;;4971583;28;20074;-76
2022/05/14 08:05:03;;;;;;;4.32;2.10;;;19.80;91.10;;;;;;4964772;28;20102;-75
2022/05/14 08:07:29;;;;;;;1.85;1.60;;;20.00;90.90;;;;;;4968128;28;20097;-75
2022/05/14 08:09:55;;;;;;;2.03;1.50;;;20.10;75.60;;;;;;4972145;28;20031;-76
2022/05/14 08:12:21;;;;;;;2.45;1.50;;;20.30;68.10;;;;;;4965947;28;20035;-76
2022/05/14 08:14:49;;;;;;;2.05;1.48;;;19.60;56.70;;;;;;4966106;28;20094;-75
2022/05/14 08:17:15;;;;;;;5.05;1.92;;;19.80;73.50;;;;;;4965306;28;20066;-76
2022/05/14 08:19:41;;;;;;;3.28;1.75;;;20.00;63.60;;;;;;4966189;28;20089;-75
2022/05/14 08:24:52;;;;;;;4.32;2.00;;;19.70;64.40;;;;;;4969916;28;20042;-76
2022/05/14 08:27:18;;;;;;;2.17;1.50;;;20.20;69.40;;;;;;4967083;28;20039;-75
2022/05/14 08:29:47;;;;;;;2.92;1.63;;;20.20;55.30;;;;;;4964225;28;20038;-75
2022/05/14 08:32:14;;;;;;;4.05;2.20;;;19.90;63.40;;;;;;4962125;28;20065;-75
2022/05/14 08:34:40;;;;;;;11.07;3.20;;;19.80;65.60;;;;;;4981719;28;20037;-75
2022/05/14 08:37:07;;;;;;;7.95;2.72;;;20.10;73.50;;;;;;4983102;28;20073;-75
2022/05/14 08:39:33;;;;;;;7.13;2.42;;;20.10;60.20;;;;;;4973340;28;20060;-76
2022/05/14 08:42:00;;;;;;;5.85;2.15;;;20.20;63.50;;;;;;4986421;28;20564;-75
2022/05/14 08:44:34;;;;;;;11.20;3.05;;;20.20;65.30;;;;;;4970418;28;20042;-75
2022/05/14 08:47:06;;;;;;;7.60;1.70;;;20.40;60.40;;;;;;4989913;28;20045;-75
2022/05/14 08:49:53;;;;;;;3.72;2.00;;;20.00;63.90;;;;;;4984822;28;20057;-75
2022/05/14 08:52:22;;;;;;;4.50;1.98;;;19.80;62.50;;;;;;4963331;28;20098;-76
2022/05/14 08:54:52;;;;;;;3.17;1.85;;;19.90;61.30;;;;;;4986611;28;20037;-76
2022/05/14 08:57:25;;;;;;;4.18;1.88;;;20.50;67.80;;;;;;4987057;28;20049;-77
2022/05/14 08:59:55;;;;;;;2.42;1.58;;;20.70;61.50;;;;;;4986371;28;20034;-78
2022/05/14 09:02:29;;;;;;;2.78;1.77;;;20.80;54.60;;;;;;4984072;28;20093;-78
2022/05/14 09:05:05;;;;;;;3.50;2.13;;;20.50;57.00;;;;;;4985117;28;20027;-77
2022/05/14 09:07:31;;;;;;;2.33;1.90;;;20.50;56.60;;;;;;4985325;28;20085;-77
2022/05/14 09:09:58;;;;;;;6.57;2.25;;;20.40;59.60;;;;;;4983131;28;20479;-77
2022/05/14 09:12:31;;;;;;;6.83;1.77;;;20.80;66.10;;;;;;4986105;28;20038;-77
2022/05/14 09:15:15;;;;;;;3.05;2.00;;;21.00;54.90;;;;;;4985269;28;20031;-77
2022/05/14 09:17:41;;;;;;;2.15;1.65;;;20.60;58.50;;;;;;4986379;28;20045;-77
2022/05/14 09:20:07;;;;;;;4.07;2.15;;;20.60;53.70;;;;;;4984348;28;20038;-76
2022/05/14 09:22:47;;;;;;;1.92;1.60;;;21.10;59.80;;;;;;4985962;28;20041;-76
2022/05/14 09:25:36;;;;;;;4.55;2.00;;;21.60;59.70;;;;;;4982476;28;20031;-78
2022/05/14 09:28:08;;;;;;;2.30;1.60;;;22.10;53.70;;;;;;4981699;28;20043;-80
2022/05/14 09:30:39;;;;;;;3.25;1.92;;;22.20;53.80;;;;;;4969016;28;20457;-81
2022/05/14 09:33:09;;;;;;;3.10;1.65;;;22.30;54.60;;;;;;4986882;28;20034;-81
2022/05/14 09:35:37;;;;;;;2.20;2.08;;;21.80;49.40;;;;;;4952239;28;20030;-81
2022/05/14 09:38:17;;;;;;;4.03;2.03;;;21.30;56.30;;;;;;4983565;28;20038;-82
2022/05/14 09:40:42;;;;;;;3.10;2.05;;;20.70;57.00;;;;;;4987481;28;20038;-82
2022/05/14 09:43:17;;;;;;;4.65;2.55;;;20.20;57.40;;;;;;4987185;28;21760;-81
2022/05/14 09:45:55;;;;;;;4.30;2.38;;;20.20;61.30;;;;;;4984855;28;20034;-82
2022/05/14 09:48:29;;;;;;;2.63;2.20;;;20.60;68.50;;;;;;4986583;28;20027;-83
2022/05/14 09:51:01;;;;;;;3.78;2.00;;;20.30;60.50;;;;;;4983879;28;20030;-84
2022/05/14 09:53:33;;;;;;;3.05;2.38;;;20.40;56.80;;;;;;4969009;28;20062;-83
2022/05/14 09:56:17;;;;;;;5.10;2.47;;;20.90;64.20;;;;;;4970483;28;20038;-83
2022/05/14 09:58:52;;;;;;;3.55;2.00;;;21.30;59.40;;;;;;4986438;28;20027;-84
2022/05/14 10:01:45;;;;;;;3.63;1.90;;;21.70;55.70;;;;;;4977006;28;20511;-84
2022/05/14 10:04:36;;;;;;;5.60;1.83;;;21.70;52.10;;;;;;4969234;28;20038;-83
2022/05/14 10:07:14;;;;;;;5.10;1.88;;;21.90;56.90;;;;;;4966572;28;20569;-80
2022/05/14 10:09:58;;;;;;;6.32;2.08;;;21.60;59.00;;;;;;4985064;28;20086;-83
2022/05/14 10:12:42;;;;;;;5.25;2.42;;;21.30;56.10;;;;;;4982672;28;20034;-82
2022/05/14 10:15:31;;;;;;;6.18;2.38;;;21.00;57.00;;;;;;4986773;28;20027;-82
2022/05/14 10:18:05;;;;;;;3.25;2.10;;;20.90;54.20;;;;;;4989262;28;20042;-82
2022/05/14 10:20:35;;;;;;;2.85;1.67;;;20.90;59.80;;;;;;4984326;28;20026;-85
2022/05/14 10:26:47;;;;;;;21.88;3.58;;;21.00;68.10;;;;;;4982010;28;20073;-83
2022/05/14 10:29:47;;;;;;;3.97;2.20;;;21.20;61.70;;;;;;4982801;28;20939;-80
2022/05/14 10:32:18;;;;;;;1.90;1.80;;;21.10;53.90;;;;;;4983916;28;20102;-82
2022/05/14 10:35:04;;;;;;;2.47;1.80;;;21.40;55.70;;;;;;4967149;28;20042;-83
2022/05/14 10:37:39;;;;;;;4.55;1.98;;;21.60;58.10;;;;;;4981925;28;20069;-83
2022/05/14 10:40:14;;;;;;;3.45;2.00;;;21.30;54.40;;;;;;4985308;28;20042;-83
2022/05/14 10:42:48;;;;;;;4.30;1.77;;;21.20;58.00;;;;;;4983690;28;20040;-82
2022/05/14 10:45:19;;;;;;;4.15;2.40;;;21.00;57.40;;;;;;4983113;28;20354;-84
2022/05/14 10:47:54;;;;;;;3.28;2.00;;;20.80;59.50;;;;;;4970478;28;20038;-85
2022/05/14 10:50:21;;;;;;;4.43;2.25;;;20.90;58.00;;;;;;4986235;28;20026;-84
2022/05/14 10:52:50;;;;;;;8.13;2.05;;;21.20;59.60;;;;;;4968481;28;20034;-84
2022/05/14 10:55:19;;;;;;;3.00;1.95;;;21.30;58.60;;;;;;4989561;28;20042;-85
2022/05/14 10:57:48;;;;;;;3.97;2.17;;;21.30;59.70;;;;;;4967268;28;20682;-83
2022/05/14 11:00:42;;;;;;;5.63;1.98;;;21.50;62.90;;;;;;4990482;28;20437;-85
2022/05/14 11:03:25;;;;;;;3.97;1.75;;;20.80;54.80;;;;;;4980720;28;20050;-83
2022/05/14 11:06:01;;;;;;;3.13;1.73;;;20.60;53.20;;;;;;4983583;28;20034;-84
2022/05/14 11:08:35;;;;;;;4.57;2.40;;;20.70;57.80;;;;;;4990865;28;20482;-84
2022/05/14 11:11:10;;;;;;;2.80;1.50;;;20.60;58.30;;;;;;4984472;28;20181;-84
2022/05/14 11:13:40;;;;;;;2.33;1.98;;;20.50;52.70;;;;;;4986651;28;20034;-84
2022/05/14 11:16:12;;;;;;;3.40;1.90;;;20.50;60.80;;;;;;4984500;28;20038;-82
2022/05/14 11:18:51;;;;;;;5.70;2.35;;;20.60;65.90;;;;;;4970619;28;20165;-84
2022/05/14 11:21:18;;;;;;;4.57;2.10;;;20.90;65.60;;;;;;4968555;28;21903;-84
2022/05/14 11:23:55;;;;;;;6.25;1.60;;;20.80;59.80;;;;;;4986500;28;20369;-84
2022/05/14 11:26:22;;;;;;;4.07;2.10;;;20.60;54.60;;;;;;4988929;28;20096;-85
2022/05/14 11:29:12;;;;;;;2.90;1.80;;;20.50;55.80;;;;;;4987347;28;20035;-84
2022/05/14 11:31:40;;;;;;;4.30;2.30;;;20.80;54.20;;;;;;4981202;28;20755;-84
2022/05/14 11:34:21;;;;;;;3.35;1.83;;;20.90;54.90;;;;;;4983588;28;20525;-83
2022/05/14 11:36:54;;;;;;;3.03;2.03;;;20.80;50.90;;;;;;4985815;28;20070;-83
2022/05/14 11:39:25;;;;;;;4.82;2.20;;;20.90;58.20;;;;;;4967611;28;20027;-82
2022/05/14 11:42:07;;;;;;;3.63;1.88;;;20.80;55.10;;;;;;4965285;28;20039;-82
2022/05/14 11:44:45;;;;;;;4.80;2.22;;;20.90;53.60;;;;;;4979679;28;20031;-83
2022/05/14 11:47:33;;;;;;;2.00;1.80;;;20.90;55.90;;;;;;4984157;28;20027;-83
2022/05/14 11:50:04;;;;;;;3.85;1.98;;;21.10;55.10;;;;;;4982504;28;20124;-84
2022/05/14 11:52:53;;;;;;;2.10;1.80;;;21.30;57.10;;;;;;4985808;28;20045;-84
2022/05/14 11:55:28;;;;;;;4.47;1.77;;;21.30;57.00;;;;;;4968640;28;20041;-82
2022/05/14 11:58:23;;;;;;;1.63;1.50;;;21.40;54.10;;;;;;4980172;28;20100;-83
2022/05/14 12:00:51;;;;;;;5.05;1.70;;;21.40;54.80;;;;;;4971412;28;20096;-83
2022/05/14 12:03:21;;;;;;;4.72;2.60;;;21.20;50.40;;;;;;4980140;28;20050;-82
2022/05/14 12:06:16;;;;;;;3.70;2.03;;;21.10;53.20;;;;;;4982271;28;20525;-83
2022/05/14 12:08:56;;;;;;;3.92;2.00;;;20.90;52.20;;;;;;4983273;28;20022;-83
2022/05/14 12:11:47;;;;;;;2.97;1.83;;;21.00;54.70;;;;;;4982358;28;20030;-83
2022/05/14 12:14:27;;;;;;;4.85;2.10;;;21.00;53.50;;;;;;4983417;28;20034;-83
2022/05/14 12:16:55;;;;;;;4.95;1.70;;;21.20;52.70;;;;;;4981656;28;20097;-84
2022/05/14 12:19:24;;;;;;;2.80;1.60;;;21.10;48.70;;;;;;4984021;28;20023;-83
2022/05/14 12:21:56;;;;;;;2.42;1.88;;;21.20;50.00;;;;;;4985808;28;20049;-83
2022/05/14 12:24:26;;;;;;;3.10;1.90;;;21.30;48.30;;;;;;4981121;28;20023;-85
2022/05/14 12:26:52;;;;;;;10.18;2.13;;;21.30;48.60;;;;;;4982430;28;20027;-83
2022/05/14 12:29:28;;;;;;;21.00;3.08;;;21.40;48.00;;;;;;4966440;28;22566;-84
2022/05/14 12:34:56;;;;;;;4.70;2.10;;;21.60;50.00;;;;;;4984758;28;20948;-84
2022/05/14 12:37:32;;;;;;;1.92;1.83;;;21.50;51.00;;;;;;4970368;28;20065;-84
2022/05/14 12:39:58;;;;;;;3.00;1.80;;;21.40;49.50;;;;;;4968955;28;20116;-84
2022/05/14 12:42:40;;;;;;;5.68;2.20;;;21.50;53.00;;;;;;4970515;28;20049;-85
2022/05/14 12:45:12;;;;;;;2.35;1.90;;;21.60;51.80;;;;;;4993327;28;20033;-83
2022/05/14 12:47:38;;;;;;;2.22;1.60;;;21.80;52.60;;;;;;4958901;28;20053;-84
2022/05/14 12:50:20;;;;;;;1.92;1.27;;;21.80;50.00;;;;;;4991920;28;20295;-83
2022/05/14 12:52:59;;;;;;;2.40;1.60;;;21.80;47.80;;;;;;4974542;28;20125;-84
2022/05/14 12:55:26;;;;;;;2.28;1.70;;;21.90;46.60;;;;;;4972051;28;20125;-84
2022/05/14 12:57:54;;;;;;;4.13;1.77;;;21.90;45.20;;;;;;4970511;28;20053;-84
2022/05/14 13:00:26;;;;;;;6.10;2.07;;;21.90;45.60;;;;;;4991450;28;20034;-85
2022/05/14 13:03:01;;;;;;;2.15;1.50;;;22.00;50.50;;;;;;4985560;28;20059;-84
2022/05/14 13:06:02;;;;;;;1.85;1.30;;;22.20;51.90;;;;;;4970624;28;20201;-83
2022/05/14 13:08:41;;;;;;;2.35;1.40;;;22.20;47.10;;;;;;4972448;28;20042;-85
2022/05/14 13:11:15;;;;;;;5.05;1.88;;;22.10;50.40;;;;;;4972877;28;20069;-84
2022/05/14 13:13:48;;;;;;;4.15;1.65;;;22.20;47.50;;;;;;4973562;28;20513;-83
2022/05/14 13:16:22;;;;;;;2.30;1.48;;;22.20;47.80;;;;;;4973131;28;20026;-84
2022/05/14 13:19:01;;;;;;;1.80;1.55;;;22.30;46.60;;;;;;4991261;28;20038;-86
2022/05/14 13:21:46;;;;;;;7.18;2.97;;;22.20;42.80;;;;;;4974320;28;20030;-84
2022/05/14 13:24:28;;;;;;;10.75;3.45;;;22.10;45.60;;;;;;4987769;28;20129;-84
2022/05/14 13:26:57;;;;;;;6.85;2.90;;;22.20;50.10;;;;;;4990858;28;20065;-83
2022/05/14 13:29:58;;;;;;;2.75;1.90;;;22.30;46.80;;;;;;4993055;28;20462;-83